Time;durP1;ratioP1;P1;durP2;ratioP2;P2;SDS_P1;SDS_P2;PMS_P1;PMS_P2;Temp;Humidity;BMP_temperature;BMP_pressure;BME280_temperature;BME280_humidity;BME280_pressure;Samples;Min_cycle;Max_cycle;Signal;HPM_P1;HPM_P2
2022/02/06 00:01:35;;;;;;;27.02;5.25;;;7.70;99.90;;;;;;5031608;28;20052;-61
2022/02/06 00:04:01;;;;;;;23.73;4.38;;;7.80;99.90;;;;;;5031511;28;20531;-60
2022/02/06 00:06:30;;;;;;;23.63;5.15;;;7.80;99.90;;;;;;5031055;28;20046;-61
2022/02/06 00:08:56;;;;;;;21.65;5.53;;;7.80;99.90;;;;;;5031184;28;20068;-61
2022/02/06 00:11:22;;;;;;;27.52;4.55;;;7.90;99.90;;;;;;5030955;28;20081;-61
2022/02/06 00:13:47;;;;;;;28.63;4.68;;;7.90;99.90;;;;;;5031288;28;20037;-61
2022/02/06 00:16:13;;;;;;;27.17;4.82;;;7.90;99.90;;;;;;5031126;28;20061;-61
2022/02/06 00:18:41;;;;;;;25.60;5.20;;;7.90;99.90;;;;;;5112191;28;20047;-60
2022/02/06 00:21:12;;;;;;;21.90;4.72;;;7.90;99.90;;;;;;5113868;28;20039;-61
2022/02/06 00:23:37;;;;;;;19.70;5.05;;;8.00;99.90;;;;;;5113851;28;20370;-61
2022/02/06 00:26:18;;;;;;;28.65;5.22;;;8.00;99.90;;;;;;5113446;28;20077;-62
2022/02/06 00:28:57;;;;;;;21.38;4.80;;;8.00;99.90;;;;;;5113965;28;20048;-61
2022/02/06 00:31:46;;;;;;;27.33;5.60;;;8.00;99.90;;;;;;5113622;28;20038;-60
2022/02/06 00:39:37;;;;;;;24.00;4.97;;;8.00;99.90;;;;;;5112945;28;20048;-62
2022/02/06 00:42:03;;;;;;;22.30;5.50;;;8.10;99.90;;;;;;5113206;28;20130;-62
2022/02/06 00:44:29;;;;;;;22.13;4.97;;;8.00;99.90;;;;;;5113626;28;20039;-61
2022/02/06 00:46:58;;;;;;;30.48;5.90;;;8.00;99.90;;;;;;5112841;28;20039;-62
2022/02/06 00:49:27;;;;;;;26.98;4.95;;;8.00;99.90;;;;;;5113571;28;20083;-62
2022/02/06 00:52:14;;;;;;;29.05;5.07;;;8.00;99.90;;;;;;5113413;28;20031;-61
2022/02/06 00:54:40;;;;;;;34.03;6.22;;;8.00;99.90;;;;;;5113541;28;20089;-62
2022/02/06 00:57:06;;;;;;;22.15;4.95;;;8.00;99.90;;;;;;5112849;28;20059;-62
2022/02/06 00:59:32;;;;;;;35.92;6.63;;;8.00;99.90;;;;;;5113422;28;20435;-62
2022/02/06 01:01:58;;;;;;;23.55;5.00;;;8.00;99.90;;;;;;5112971;28;20101;-62
2022/02/06 01:04:24;;;;;;;29.65;6.13;;;8.00;99.90;;;;;;5112895;28;20066;-62
2022/02/06 01:06:50;;;;;;;29.33;5.65;;;8.00;99.90;;;;;;5112655;28;20032;-62
2022/02/06 01:09:17;;;;;;;26.40;5.68;;;8.10;99.90;;;;;;5112702;28;20443;-61
2022/02/06 01:11:43;;;;;;;27.25;4.82;;;8.00;99.90;;;;;;5112428;28;20489;-62
2022/02/06 01:14:27;;;;;;;29.85;5.88;;;8.00;99.90;;;;;;5112758;28;20032;-62
2022/02/06 01:17:06;;;;;;;28.80;5.70;;;8.00;99.90;;;;;;5112798;28;20481;-62
2022/02/06 01:19:43;;;;;;;30.55;5.60;;;8.00;99.90;;;;;;5112995;28;20044;-62
2022/02/06 01:22:12;;;;;;;27.38;5.68;;;8.00;99.90;;;;;;5112935;28;20078;-62
2022/02/06 01:24:47;;;;;;;34.42;5.45;;;8.10;99.90;;;;;;5112560;28;20044;-62
2022/02/06 01:27:21;;;;;;;27.88;4.95;;;8.10;99.90;;;;;;5112411;28;20520;-62
2022/02/06 01:30:10;;;;;;;43.03;7.32;;;8.10;99.90;;;;;;5112391;28;20573;-62
2022/02/06 01:32:43;;;;;;;27.38;5.18;;;8.00;99.90;;;;;;5097962;28;20389;-61
2022/02/06 01:35:14;;;;;;;31.20;6.82;;;8.10;99.90;;;;;;5112210;28;20100;-62
2022/02/06 01:40:16;;;;;;;23.65;5.22;;;8.10;99.90;;;;;;5112688;28;20051;-61
2022/02/06 01:42:47;;;;;;;28.25;6.05;;;8.00;99.90;;;;;;5112144;28;20043;-62
2022/02/06 02:04:14;;;;;;;31.80;6.00;;;8.20;99.90;;;;;;5116522;28;20043;-62
2022/02/06 02:15:12;;;;;;;26.27;5.15;;;8.20;99.90;;;;;;5116030;28;20118;-62
2022/02/06 02:46:30;;;;;;;25.05;5.00;;;8.20;99.90;;;;;;5115657;28;20051;-62
2022/02/06 02:48:58;;;;;;;39.03;5.82;;;8.20;99.90;;;;;;5115889;28;20043;-62
2022/02/06 02:51:27;;;;;;;38.05;5.15;;;8.20;99.90;;;;;;5115746;28;20032;-62
2022/02/06 02:54:00;;;;;;;;;;;8.20;99.90;;;;;;5115898;28;20040;-63
2022/02/06 02:57:01;;;;;;;28.90;5.55;;;8.20;99.90;;;;;;5115397;28;19930;-62
2022/02/06 03:04:10;;;;;;;33.33;5.43;;;8.10;99.90;;;;;;5114968;28;20050;-62
2022/02/06 03:06:35;;;;;;;25.88;4.75;;;8.10;99.90;;;;;;5096762;28;20517;-63
2022/02/06 03:09:02;;;;;;;21.00;4.47;;;8.10;99.90;;;;;;5115079;28;20541;-63
2022/02/06 03:11:27;;;;;;;22.65;5.90;;;8.10;99.90;;;;;;5096997;28;20047;-63
2022/02/06 03:16:23;;;;;;;30.55;6.03;;;8.10;99.90;;;;;;5114945;28;20093;-63
2022/02/06 03:18:59;;;;;;;24.58;5.05;;;8.10;99.90;;;;;;5114723;28;20067;-63
2022/02/06 03:21:28;;;;;;;26.80;5.57;;;8.10;99.90;;;;;;5096712;28;20036;-62
2022/02/06 03:23:55;;;;;;;30.67;4.63;;;8.10;99.90;;;;;;5115122;28;20046;-62
2022/02/06 03:26:25;;;;;;;29.05;5.93;;;8.10;99.90;;;;;;5114749;28;20039;-62
2022/02/06 03:28:54;;;;;;;26.50;5.45;;;8.10;99.90;;;;;;5114853;28;20059;-62
2022/02/06 03:31:21;;;;;;;34.33;4.53;;;8.10;99.90;;;;;;5114656;28;20115;-62
2022/02/06 03:33:48;;;;;;;20.98;5.03;;;8.20;99.90;;;;;;5114446;28;20397;-62
2022/02/06 03:36:14;;;;;;;21.55;4.60;;;8.10;99.90;;;;;;5114515;28;20478;-62
2022/02/06 03:38:40;;;;;;;28.95;5.75;;;8.10;99.90;;;;;;5114597;28;20040;-62
2022/02/06 03:41:09;;;;;;;26.02;5.40;;;8.10;99.90;;;;;;5114553;28;20039;-62
2022/02/06 03:46:10;;;;;;;24.02;4.18;;;8.10;99.90;;;;;;5114136;28;20051;-62
2022/02/06 03:51:18;;;;;;;24.98;4.45;;;8.10;99.90;;;;;;5095984;28;20126;-62
2022/02/06 03:53:50;;;;;;;24.63;4.55;;;8.10;99.90;;;;;;5114319;28;20035;-61
2022/02/06 03:56:16;;;;;;;24.70;5.25;;;8.10;99.90;;;;;;5114425;28;20063;-62
2022/02/06 03:58:42;;;;;;;36.85;5.20;;;8.10;99.90;;;;;;5114092;28;20039;-62
2022/02/06 04:01:08;;;;;;;26.35;4.40;;;8.20;99.90;;;;;;5114072;28;20393;-62
2022/02/06 04:03:34;;;;;;;26.35;5.32;;;8.20;99.90;;;;;;5114259;28;20039;-62
2022/02/06 04:05:59;;;;;;;22.58;4.82;;;8.20;99.90;;;;;;5114061;28;20481;-62
2022/02/06 04:08:27;;;;;;;34.10;5.38;;;8.20;99.90;;;;;;5113733;28;20191;-62
2022/02/06 04:10:53;;;;;;;26.27;4.40;;;8.20;99.90;;;;;;5113392;28;20050;-62
2022/02/06 04:13:23;;;;;;;27.98;5.07;;;8.10;99.90;;;;;;5095415;28;20047;-62
2022/02/06 04:15:56;;;;;;;27.15;4.70;;;8.20;99.90;;;;;;5114138;28;20047;-61
2022/02/06 04:18:36;;;;;;;26.33;4.72;;;8.20;99.90;;;;;;5095649;28;20051;-61
2022/02/06 04:21:03;;;;;;;28.88;4.50;;;8.20;99.90;;;;;;5114068;28;20039;-62
2022/02/06 04:23:30;;;;;;;30.25;5.35;;;8.20;99.90;;;;;;5113757;28;20098;-61
2022/02/06 04:25:56;;;;;;;26.70;4.40;;;8.10;99.90;;;;;;5113442;28;20277;-62
2022/02/06 04:28:22;;;;;;;24.63;4.88;;;8.20;99.90;;;;;;5113443;28;20058;-61
2022/02/06 04:30:47;;;;;;;24.90;4.78;;;8.20;99.90;;;;;;5113553;28;20481;-61
2022/02/06 04:33:13;;;;;;;22.42;4.15;;;8.10;99.90;;;;;;5113769;28;20047;-61
2022/02/06 04:35:40;;;;;;;21.02;3.90;;;8.20;99.90;;;;;;5113309;28;20371;-62
2022/02/06 04:41:12;;;;;;;22.10;4.22;;;8.20;99.90;;;;;;5113342;28;20118;-61
2022/02/06 04:44:01;;;;;;;19.52;4.10;;;8.20;99.90;;;;;;5113017;28;20067;-62
2022/02/06 04:47:17;;;;;;;20.17;4.05;;;8.20;99.90;;;;;;5094523;28;20047;-52
2022/02/06 04:55:13;;;;;;;31.45;5.15;;;8.20;99.90;;;;;;5112835;28;20046;-52
2022/02/06 05:22:07;;;;;;;26.17;4.93;;;8.20;99.90;;;;;;5111938;28;20473;-52
2022/02/06 05:27:12;;;;;;;24.98;3.67;;;8.30;99.90;;;;;;5112813;28;20174;-54
2022/02/06 05:32:24;;;;;;;22.65;4.80;;;8.30;99.90;;;;;;5112493;28;20130;-52
2022/02/06 05:34:50;;;;;;;22.10;3.58;;;8.20;99.90;;;;;;5112076;28;20070;-53
2022/02/06 05:37:16;;;;;;;22.63;3.80;;;8.30;99.90;;;;;;5112407;28;20065;-52
2022/02/06 05:39:41;;;;;;;25.73;4.50;;;8.30;99.90;;;;;;5112318;28;20096;-52
2022/02/06 05:42:08;;;;;;;26.10;4.45;;;8.30;99.90;;;;;;5112259;28;20087;-52
2022/02/06 05:44:35;;;;;;;24.80;3.67;;;8.30;99.90;;;;;;5112086;28;20169;-52
2022/02/06 05:47:01;;;;;;;19.80;3.70;;;8.30;99.90;;;;;;5112110;28;20050;-53
2022/02/06 05:49:27;;;;;;;19.65;4.25;;;8.30;99.90;;;;;;5112216;28;20122;-51
2022/02/06 05:51:52;;;;;;;20.08;3.78;;;8.30;99.90;;;;;;5111915;28;20173;-50
2022/02/06 05:54:18;;;;;;;23.15;4.28;;;8.30;99.90;;;;;;5112140;28;20028;-51
2022/02/06 05:56:44;;;;;;;24.60;3.92;;;8.30;99.90;;;;;;5111928;28;20062;-53
2022/02/06 05:59:10;;;;;;;22.60;3.90;;;8.30;99.90;;;;;;5112064;28;20044;-53
2022/02/06 06:01:35;;;;;;;22.67;5.05;;;8.30;99.90;;;;;;5112086;28;20055;-51
2022/02/06 06:04:01;;;;;;;21.90;4.05;;;8.30;99.90;;;;;;5112589;28;20039;-52
2022/02/06 06:06:26;;;;;;;18.35;3.53;;;8.30;99.90;;;;;;5111978;28;20043;-49
2022/02/06 06:08:52;;;;;;;20.95;3.67;;;8.20;99.90;;;;;;5112124;28;20040;-54
2022/02/06 06:11:18;;;;;;;20.48;4.65;;;8.30;99.90;;;;;;5111731;28;20085;-51
2022/02/06 06:13:43;;;;;;;23.73;4.07;;;8.30;99.90;;;;;;5111835;28;20028;-52
2022/02/06 06:16:09;;;;;;;24.65;4.35;;;8.30;99.90;;;;;;5111731;28;20040;-51
2022/02/06 06:18:35;;;;;;;29.10;4.10;;;8.40;99.90;;;;;;5111732;28;20047;-49
2022/02/06 06:21:03;;;;;;;18.90;3.60;;;8.40;99.90;;;;;;5111881;28;20482;-53
2022/02/06 06:23:28;;;;;;;30.17;4.07;;;8.30;99.90;;;;;;5111891;28;20546;-53
2022/02/06 06:25:54;;;;;;;21.20;4.13;;;8.30;99.90;;;;;;5111710;28;20486;-52
2022/02/06 06:28:20;;;;;;;21.15;4.28;;;8.40;99.90;;;;;;5093005;28;20047;-53
2022/02/06 06:30:45;;;;;;;20.67;3.65;;;8.40;99.90;;;;;;5111798;28;20067;-53
2022/02/06 06:33:11;;;;;;;22.77;4.38;;;8.30;99.90;;;;;;5112074;28;20461;-53
2022/02/06 06:35:38;;;;;;;25.58;3.80;;;8.30;99.90;;;;;;5115752;28;20051;-52
2022/02/06 06:38:04;;;;;;;28.98;4.45;;;8.30;99.90;;;;;;5115417;28;20054;-50
2022/02/06 06:40:30;;;;;;;17.15;3.67;;;8.30;99.90;;;;;;5115420;28;20040;-53
2022/02/06 06:42:56;;;;;;;23.48;4.18;;;8.40;99.90;;;;;;5115379;28;20055;-53
2022/02/06 06:45:23;;;;;;;23.25;4.28;;;8.40;99.90;;;;;;5115266;28;20043;-53
2022/02/06 06:47:51;;;;;;;25.42;5.32;;;8.50;99.90;;;;;;5115420;28;20088;-51
2022/02/06 06:50:16;;;;;;;18.08;3.38;;;8.50;99.90;;;;;;5115269;28;20060;-52
2022/02/06 06:52:45;;;;;;;24.90;3.78;;;8.40;99.90;;;;;;5115239;28;20103;-52
2022/02/06 06:55:13;;;;;;;22.17;3.40;;;8.50;99.90;;;;;;5115029;28;20051;-51
2022/02/06 06:57:42;;;;;;;15.68;3.03;;;8.50;99.90;;;;;;5115182;28;20040;-52
2022/02/06 07:00:22;;;;;;;15.55;2.97;;;8.40;99.90;;;;;;5115022;28;20054;-51
2022/02/06 07:02:47;;;;;;;14.65;2.80;;;8.40;99.90;;;;;;5114817;28;20058;-50
2022/02/06 07:05:13;;;;;;;23.77;4.85;;;8.30;99.90;;;;;;5114901;28;20474;-53
2022/02/06 07:07:39;;;;;;;18.98;3.00;;;8.30;99.90;;;;;;5114775;28;20039;-52
2022/02/06 07:10:06;;;;;;;18.08;3.53;;;8.30;99.90;;;;;;5114926;28;20074;-53
2022/02/06 07:12:32;;;;;;;16.02;3.03;;;8.30;99.90;;;;;;5114692;28;20092;-53
2022/02/06 07:14:59;;;;;;;23.90;4.15;;;8.30;99.90;;;;;;5115117;28;20036;-52
2022/02/06 07:17:26;;;;;;;21.58;3.70;;;8.40;99.90;;;;;;5114764;28;20439;-51
2022/02/06 07:19:51;;;;;;;18.90;3.17;;;8.40;99.90;;;;;;5114847;28;20096;-53
2022/02/06 07:22:19;;;;;;;20.25;3.22;;;8.40;99.90;;;;;;5114681;28;20047;-54
2022/02/06 07:24:47;;;;;;;19.23;3.53;;;8.30;99.90;;;;;;5114677;28;20042;-52
2022/02/06 07:29:48;;;;;;;18.00;3.53;;;8.40;99.90;;;;;;5114934;28;20129;-53
2022/02/06 07:32:14;;;;;;;17.83;3.03;;;8.40;99.90;;;;;;5114744;28;20547;-49
2022/02/06 07:34:40;;;;;;;13.00;2.53;;;8.40;99.90;;;;;;5114555;28;20118;-52
2022/02/06 07:37:06;;;;;;;19.85;3.90;;;8.40;99.90;;;;;;5114281;28;20044;-51
2022/02/06 07:39:33;;;;;;;21.48;4.57;;;8.30;99.90;;;;;;5114262;28;20051;-54
2022/02/06 07:41:59;;;;;;;22.90;3.78;;;8.30;99.90;;;;;;5114239;28;20114;-54
2022/02/06 07:44:25;;;;;;;13.90;2.92;;;8.20;99.90;;;;;;5114250;28;20114;-53
2022/02/06 07:47:00;;;;;;;24.55;3.88;;;8.30;99.90;;;;;;5113597;28;20081;-53
2022/02/06 07:49:25;;;;;;;19.65;3.55;;;8.20;99.90;;;;;;5114147;28;20035;-51
2022/02/06 07:51:51;;;;;;;21.83;4.28;;;8.20;99.90;;;;;;5114047;28;20374;-53
2022/02/06 07:54:17;;;;;;;14.90;2.90;;;8.20;99.90;;;;;;5114135;28;20048;-54
2022/02/06 07:56:42;;;;;;;23.98;4.22;;;8.20;99.90;;;;;;5095673;28;20130;-53
2022/02/06 07:59:08;;;;;;;19.13;3.42;;;8.20;99.90;;;;;;5113772;28;20558;-52
2022/02/06 08:01:34;;;;;;;23.08;3.90;;;8.20;99.90;;;;;;5113890;28;20046;-53
2022/02/06 08:03:59;;;;;;;19.70;3.60;;;8.30;99.90;;;;;;5113859;28;20046;-51
2022/02/06 08:06:25;;;;;;;18.50;3.97;;;8.20;99.90;;;;;;5095519;28;20071;-53
2022/02/06 08:08:51;;;;;;;28.60;3.75;;;8.20;99.90;;;;;;5113740;28;20473;-53
2022/02/06 08:11:16;;;;;;;20.50;3.65;;;8.10;99.90;;;;;;5095276;28;20478;-53
2022/02/06 08:13:52;;;;;;;17.20;4.32;;;8.20;99.90;;;;;;5113641;28;20054;-52
2022/02/06 08:16:18;;;;;;;15.82;4.07;;;8.20;99.90;;;;;;5113534;28;20104;-52
2022/02/06 08:18:44;;;;;;;24.92;4.15;;;8.20;99.90;;;;;;5095229;28;20039;-51
2022/02/06 08:21:11;;;;;;;27.27;3.75;;;8.10;99.90;;;;;;5113338;28;20039;-52
2022/02/06 08:23:38;;;;;;;25.20;4.30;;;8.20;99.90;;;;;;5113377;28;20520;-52
2022/02/06 08:26:05;;;;;;;17.67;3.47;;;8.20;99.90;;;;;;5112954;28;20370;-52
2022/02/06 08:28:31;;;;;;;27.95;5.68;;;8.20;99.90;;;;;;5086519;28;20104;-53
2022/02/06 08:30:58;;;;;;;18.52;4.03;;;8.20;99.90;;;;;;5113339;28;20042;-49
2022/02/06 08:33:24;;;;;;;27.35;4.25;;;8.20;99.90;;;;;;5112735;28;20474;-53
2022/02/06 08:35:51;;;;;;;22.33;4.40;;;8.20;99.90;;;;;;5113109;28;20043;-53
2022/02/06 08:38:17;;;;;;;22.63;3.65;;;8.20;99.90;;;;;;5095164;28;20043;-53
2022/02/06 08:40:43;;;;;;;23.25;4.28;;;8.30;99.90;;;;;;5113210;28;20050;-53
2022/02/06 08:43:09;;;;;;;22.05;3.95;;;8.20;99.90;;;;;;5113058;28;20036;-52
2022/02/06 08:45:36;;;;;;;29.88;4.35;;;8.20;99.90;;;;;;5113218;28;20043;-54
2022/02/06 08:48:02;;;;;;;22.60;3.78;;;8.10;99.90;;;;;;5112917;28;20049;-52
2022/02/06 08:50:28;;;;;;;23.73;3.40;;;8.10;99.90;;;;;;5112956;28;20036;-52
2022/02/06 08:52:58;;;;;;;21.80;4.20;;;8.10;99.90;;;;;;5094282;28;20122;-52
2022/02/06 08:55:24;;;;;;;19.67;4.00;;;8.20;99.90;;;;;;5112924;28;20040;-53
2022/02/06 08:57:51;;;;;;;24.20;4.40;;;8.10;99.90;;;;;;5112559;28;20047;-53
2022/02/06 09:00:18;;;;;;;25.65;4.28;;;8.20;99.90;;;;;;5112903;28;20071;-53
2022/02/06 09:02:44;;;;;;;27.25;5.00;;;8.10;99.90;;;;;;5112556;28;20058;-53
2022/02/06 09:05:12;;;;;;;23.25;3.72;;;8.10;99.90;;;;;;5112682;28;20039;-53
2022/02/06 09:07:40;;;;;;;28.17;4.22;;;8.20;99.90;;;;;;5112767;28;20039;-52
2022/02/06 09:10:06;;;;;;;16.92;2.97;;;8.10;99.90;;;;;;5112719;28;20055;-53
2022/02/06 09:12:32;;;;;;;20.55;4.13;;;8.20;99.90;;;;;;5112451;28;20032;-50
2022/02/06 09:14:58;;;;;;;20.73;3.80;;;8.20;99.90;;;;;;5112468;28;20038;-53
2022/02/06 09:17:23;;;;;;;16.00;3.75;;;8.20;99.90;;;;;;5094269;28;20494;-50
2022/02/06 09:19:49;;;;;;;19.27;2.65;;;8.20;99.90;;;;;;5112583;28;20165;-51
2022/02/06 09:22:15;;;;;;;19.73;3.03;;;8.20;99.90;;;;;;5112569;28;20039;-54
2022/02/06 09:24:42;;;;;;;16.65;3.78;;;8.20;99.90;;;;;;5112262;28;20477;-52
2022/02/06 09:27:08;;;;;;;14.95;2.45;;;8.20;99.90;;;;;;5112774;28;20488;-52
2022/02/06 09:29:35;;;;;;;16.88;3.70;;;8.20;99.90;;;;;;5112309;28;20042;-50
2022/02/06 09:37:00;;;;;;;14.13;3.33;;;8.20;99.90;;;;;;5112365;28;20152;-53
2022/02/06 09:39:25;;;;;;;13.18;3.17;;;8.20;99.90;;;;;;5112266;28;20497;-53
2022/02/06 09:41:52;;;;;;;10.95;2.72;;;8.20;99.90;;;;;;5112304;28;20044;-52
2022/02/06 09:44:22;;;;;;;17.88;2.65;;;8.20;99.90;;;;;;5112656;28;20039;-62
2022/02/06 09:46:50;;;;;;;12.98;2.92;;;8.20;99.90;;;;;;5112300;28;20044;-54
2022/02/06 09:49:20;;;;;;;15.85;3.10;;;8.20;99.90;;;;;;5112240;28;20259;-62
2022/02/06 09:51:46;;;;;;;14.15;2.63;;;8.20;99.90;;;;;;5112655;28;20047;-62
2022/02/06 09:54:13;;;;;;;12.50;2.72;;;8.20;99.90;;;;;;5112827;28;20040;-62
2022/02/06 09:56:44;;;;;;;12.68;2.50;;;8.20;99.90;;;;;;5112200;28;20059;-61
2022/02/06 09:59:18;;;;;;;14.02;2.55;;;8.20;99.90;;;;;;5112587;28;20065;-62
2022/02/06 10:01:46;;;;;;;11.00;2.63;;;8.20;99.90;;;;;;5112400;28;20078;-62
2022/02/06 10:04:16;;;;;;;17.70;3.37;;;8.20;99.90;;;;;;5112670;28;20129;-62
2022/02/06 10:06:54;;;;;;;15.93;3.38;;;8.20;99.90;;;;;;5111967;28;20813;-53
2022/02/06 10:09:29;;;;;;;15.77;3.50;;;8.20;99.90;;;;;;5114628;28;20046;-61
2022/02/06 10:11:56;;;;;;;17.02;3.67;;;8.20;99.90;;;;;;5116228;28;20040;-62
2022/02/06 10:14:23;;;;;;;16.83;3.28;;;8.20;99.90;;;;;;5116334;28;20124;-62
2022/02/06 10:16:50;;;;;;;14.75;3.17;;;8.20;99.90;;;;;;5116219;28;20056;-62
2022/02/06 10:19:16;;;;;;;26.08;4.70;;;8.20;99.90;;;;;;5116671;28;20126;-62
2022/02/06 10:21:42;;;;;;;10.73;2.22;;;8.20;99.90;;;;;;5116408;28;20118;-63
2022/02/06 10:24:19;;;;;;;6.38;1.50;;;8.10;99.90;;;;;;5116100;28;20071;-64
2022/02/06 10:32:00;;;;;;;3.28;0.88;;;7.40;99.90;;;;;;5116318;28;20067;-62
2022/02/06 10:34:36;;;;;;;5.10;0.80;;;7.40;99.90;;;;;;5116296;28;20077;-60
2022/02/06 10:37:22;;;;;;;7.40;1.00;;;7.30;99.90;;;;;;5116268;28;20106;-61
2022/02/06 10:39:53;;;;;;;4.38;0.70;;;7.20;99.90;;;;;;5115838;28;20035;-51
2022/02/06 10:42:27;;;;;;;7.95;1.27;;;7.20;99.90;;;;;;5115553;28;20066;-61
2022/02/06 10:45:15;;;;;;;6.97;0.85;;;7.10;99.90;;;;;;5115536;28;20417;-53
2022/02/06 10:47:43;;;;;;;7.35;1.20;;;7.10;99.90;;;;;;5115467;28;20435;-52
2022/02/06 10:50:15;;;;;;;4.78;1.00;;;7.10;99.90;;;;;;5115582;28;20074;-52
2022/02/06 10:52:42;;;;;;;6.80;1.00;;;7.10;99.90;;;;;;5116222;28;20031;-50
2022/02/06 10:55:08;;;;;;;5.47;0.98;;;7.00;99.90;;;;;;5115729;28;20035;-61
2022/02/06 10:57:36;;;;;;;6.80;1.08;;;7.00;99.90;;;;;;5115082;28;20056;-60
2022/02/06 11:00:05;;;;;;;7.18;1.13;;;6.80;99.90;;;;;;5115519;28;20047;-62
2022/02/06 11:02:35;;;;;;;5.45;0.82;;;6.80;99.90;;;;;;5115282;28;20538;-53
2022/02/06 11:05:33;;;;;;;5.82;1.05;;;6.70;99.90;;;;;;5115520;28;20036;-52
2022/02/06 11:07:56;;;;;;;7.78;0.82;;;6.70;99.90;;;;;;5115050;28;20122;-51
2022/02/06 11:10:24;;;;;;;9.38;0.80;;;6.70;99.90;;;;;;5115089;28;20039;-52
2022/02/06 11:12:59;;;;;;;4.63;1.10;;;6.60;99.90;;;;;;5115376;28;20038;-61
2022/02/06 11:15:30;;;;;;;5.75;1.42;;;6.60;99.90;;;;;;5115184;28;20390;-61
2022/02/06 11:18:07;;;;;;;7.07;1.20;;;6.50;99.90;;;;;;5115421;28;20047;-61
2022/02/06 11:20:33;;;;;;;7.28;0.80;;;6.60;99.90;;;;;;5113791;28;20122;-53
2022/02/06 11:23:03;;;;;;;4.85;0.88;;;6.50;99.90;;;;;;5114788;28;20063;-53
2022/02/06 11:25:30;;;;;;;3.03;0.80;;;6.50;99.90;;;;;;5114495;28;20035;-53
2022/02/06 11:27:57;;;;;;;6.72;0.68;;;6.50;99.90;;;;;;5114579;28;20036;-52
2022/02/06 11:30:23;;;;;;;5.72;0.77;;;6.60;99.90;;;;;;5114633;28;20039;-53
2022/02/06 11:32:48;;;;;;;5.47;0.80;;;6.50;99.90;;;;;;5114751;28;20055;-61
2022/02/06 11:35:19;;;;;;;3.95;0.70;;;6.50;99.90;;;;;;5115032;28;20393;-51
2022/02/06 11:44:10;;;;;;;3.42;0.57;;;6.40;99.90;;;;;;5114547;28;20044;-61
2022/02/06 11:46:55;;;;;;;2.65;0.52;;;6.40;99.90;;;;;;5031388;28;20081;-62
2022/02/06 11:49:22;;;;;;;2.80;0.60;;;6.40;99.90;;;;;;4953125;29;20126;-63
2022/02/06 11:51:56;;;;;;;3.08;0.70;;;6.50;99.90;;;;;;4953189;29;20047;-62
2022/02/06 11:54:26;;;;;;;2.30;0.60;;;6.50;99.90;;;;;;4953278;29;20051;-62
2022/02/06 11:57:12;;;;;;;1.85;0.45;;;6.50;99.90;;;;;;4953012;29;20161;-63
2022/02/06 11:59:38;;;;;;;2.92;0.38;;;6.50;99.90;;;;;;4953286;29;20047;-62
2022/02/06 12:02:39;;;;;;;2.97;0.55;;;6.50;99.90;;;;;;4953143;29;20054;-64
2022/02/06 12:05:20;;;;;;;2.92;0.73;;;6.60;99.90;;;;;;4896089;29;20500;-62
2022/02/06 12:07:51;;;;;;;2.85;0.40;;;6.60;99.90;;;;;;4895941;29;20124;-63
2022/02/06 12:10:32;;;;;;;2.83;0.47;;;6.60;99.90;;;;;;4895910;29;20060;-64
2022/02/06 12:13:17;;;;;;;2.80;0.47;;;6.60;99.90;;;;;;4895672;29;20052;-63
2022/02/06 12:15:51;;;;;;;2.83;0.75;;;6.60;99.90;;;;;;4896047;29;20536;-63
2022/02/06 12:18:31;;;;;;;2.28;0.80;;;6.60;99.90;;;;;;4895714;29;20097;-63
2022/02/06 12:21:21;;;;;;;1.95;1.17;;;6.60;99.90;;;;;;4895708;29;20423;-63
2022/02/06 12:24:01;;;;;;;2.25;0.60;;;6.60;99.90;;;;;;4936592;28;20067;-62
2022/02/06 12:26:28;;;;;;;3.03;0.98;;;6.70;99.90;;;;;;4991083;28;20409;-62
2022/02/06 12:28:58;;;;;;;10.38;1.92;;;6.70;99.90;;;;;;5011026;28;20528;-63
2022/02/06 12:31:29;;;;;;;6.10;1.20;;;6.70;99.90;;;;;;5010302;28;20045;-62
2022/02/06 12:34:18;;;;;;;4.88;0.80;;;6.70;99.90;;;;;;5010762;28;20044;-63
2022/02/06 12:39:39;;;;;;;6.18;1.50;;;6.80;99.90;;;;;;5020350;28;20051;-63
2022/02/06 12:42:09;;;;;;;4.68;1.50;;;6.80;99.90;;;;;;5030444;28;20120;-63
2022/02/06 12:44:36;;;;;;;3.50;0.73;;;6.80;99.90;;;;;;5030303;28;20060;-63
2022/02/06 12:47:09;;;;;;;8.40;1.15;;;6.90;99.90;;;;;;5030474;28;20041;-62
2022/02/06 12:49:35;;;;;;;4.63;0.88;;;6.80;99.90;;;;;;5030219;28;20154;-63
2022/02/06 12:52:03;;;;;;;6.90;1.20;;;6.90;99.90;;;;;;5030200;28;20488;-63
2022/02/06 12:54:29;;;;;;;6.38;0.95;;;6.90;99.90;;;;;;5030373;28;20041;-53
2022/02/06 12:56:56;;;;;;;8.32;1.23;;;6.90;99.90;;;;;;5029890;28;20046;-50
2022/02/06 12:59:24;;;;;;;8.43;1.25;;;7.00;99.90;;;;;;5030149;28;20500;-51
2022/02/06 13:01:50;;;;;;;10.23;1.40;;;7.00;99.90;;;;;;5030168;28;20045;-53
2022/02/06 13:04:18;;;;;;;9.95;1.33;;;7.00;99.90;;;;;;5030064;28;20065;-63
2022/02/06 13:06:48;;;;;;;8.82;1.50;;;7.10;99.90;;;;;;5029703;28;20045;-64
2022/02/06 13:09:40;;;;;;;9.82;2.30;;;7.10;99.90;;;;;;5029935;28;20440;-63
2022/02/06 13:20:02;;;;;;;8.77;1.27;;;7.30;99.90;;;;;;5112584;28;20051;-62
2022/02/06 13:22:50;;;;;;;14.98;1.70;;;7.30;99.90;;;;;;5112620;28;20085;-62
2022/02/06 13:25:48;;;;;;;12.95;2.10;;;7.30;99.90;;;;;;5093368;28;20060;-62
2022/02/06 13:33:55;;;;;;;11.07;1.77;;;7.40;99.90;;;;;;5112347;28;20054;-63
2022/02/06 13:36:42;;;;;;;11.40;2.13;;;7.50;99.90;;;;;;5112151;28;20489;-63
2022/02/06 13:39:14;;;;;;;8.23;2.30;;;7.50;99.90;;;;;;5111801;28;20493;-63
2022/02/06 13:41:40;;;;;;;13.57;1.95;;;7.50;99.90;;;;;;5112068;28;20058;-63
2022/02/06 13:44:15;;;;;;;14.02;2.25;;;7.60;99.90;;;;;;5111329;28;20044;-63
2022/02/06 13:46:42;;;;;;;13.07;2.25;;;7.70;99.90;;;;;;5112223;28;20042;-63
2022/02/06 13:49:08;;;;;;;10.18;2.70;;;7.90;99.90;;;;;;5112244;28;20390;-63
2022/02/06 13:51:42;;;;;;;11.15;2.15;;;8.10;99.90;;;;;;5112161;28;20359;-52
2022/02/06 13:54:08;;;;;;;11.23;2.47;;;8.30;99.90;;;;;;5111969;28;20111;-63
2022/02/06 13:56:35;;;;;;;12.98;1.90;;;8.40;99.90;;;;;;5111658;28;20465;-62
2022/02/06 13:59:05;;;;;;;11.95;2.40;;;8.40;99.90;;;;;;5111920;28;20481;-62
2022/02/06 14:01:52;;;;;;;28.67;3.58;;;8.50;99.90;;;;;;5112329;28;20362;-63
2022/02/06 14:04:29;;;;;;;8.13;1.75;;;8.50;99.90;;;;;;5112041;28;20043;-62
2022/02/06 14:07:10;;;;;;;13.45;2.70;;;8.50;99.90;;;;;;5111874;28;20043;-49
2022/02/06 14:12:20;;;;;;;11.45;2.17;;;8.40;99.90;;;;;;5112033;28;20458;-54
2022/02/06 14:14:55;;;;;;;4.85;1.10;;;8.40;99.90;;;;;;5111967;28;20047;-64
2022/02/06 14:17:24;;;;;;;9.82;1.85;;;8.40;99.90;;;;;;5112142;28;20039;-53
2022/02/06 14:19:51;;;;;;;12.15;1.70;;;8.40;99.90;;;;;;5111747;28;20370;-52
2022/02/06 14:22:35;;;;;;;14.70;1.90;;;8.40;99.90;;;;;;5111729;28;20481;-53
2022/02/06 14:25:07;;;;;;;11.95;1.67;;;8.30;99.90;;;;;;5111904;28;20046;-51
2022/02/06 14:27:42;;;;;;;10.48;1.67;;;8.30;99.90;;;;;;5111682;28;20032;-53
2022/02/06 14:30:15;;;;;;;11.70;1.80;;;8.20;99.90;;;;;;5112002;28;20046;-62
2022/02/06 14:33:00;;;;;;;9.65;2.10;;;8.10;99.90;;;;;;5111948;28;20036;-62
2022/02/06 14:35:41;;;;;;;10.07;1.60;;;8.10;99.90;;;;;;5111793;28;20050;-62
2022/02/06 14:38:10;;;;;;;12.20;2.58;;;8.00;99.90;;;;;;5111612;28;20395;-62
2022/02/06 14:43:11;;;;;;;10.35;2.00;;;7.90;99.90;;;;;;5111585;28;20039;-61
2022/02/06 14:45:56;;;;;;;11.95;2.10;;;7.90;99.90;;;;;;5111648;28;20107;-62
2022/02/06 14:48:25;;;;;;;9.68;2.17;;;7.90;99.90;;;;;;5111641;28;20032;-62
2022/02/06 14:50:51;;;;;;;16.20;2.35;;;7.80;99.90;;;;;;5111305;28;20027;-54
2022/02/06 14:53:19;;;;;;;12.02;2.40;;;7.90;99.90;;;;;;5111492;28;20039;-62
2022/02/06 14:55:45;;;;;;;10.57;2.53;;;7.80;99.90;;;;;;5114502;28;20123;-63
2022/02/06 14:58:11;;;;;;;15.45;2.65;;;7.80;99.90;;;;;;5115026;28;20456;-62
2022/02/06 15:00:38;;;;;;;5.32;1.65;;;7.60;99.90;;;;;;5115157;28;20039;-62
2022/02/06 15:03:05;;;;;;;4.68;1.60;;;6.80;99.90;;;;;;5096765;28;20039;-62
2022/02/06 15:05:31;;;;;;;3.70;1.00;;;6.00;99.90;;;;;;5114908;28;20092;-53
2022/02/06 15:07:57;;;;;;;4.10;0.93;;;5.40;99.90;;;;;;5115155;28;20130;-53
2022/02/06 15:10:23;;;;;;;5.20;1.15;;;5.30;99.90;;;;;;5115328;28;20154;-61
2022/02/06 15:12:49;;;;;;;5.30;0.80;;;5.10;99.90;;;;;;5115095;28;20043;-61
2022/02/06 15:15:17;;;;;;;4.45;0.65;;;5.00;99.90;;;;;;5115221;28;20040;-62
2022/02/06 15:17:43;;;;;;;1.45;0.60;;;5.00;99.90;;;;;;5115175;28;20493;-53
2022/02/06 15:20:10;;;;;;;5.07;0.80;;;5.00;99.90;;;;;;5114665;28;20048;-53
2022/02/06 15:22:36;;;;;;;2.05;0.63;;;4.90;99.90;;;;;;5114871;28;20100;-61
2022/02/06 15:25:02;;;;;;;1.33;0.45;;;5.10;99.90;;;;;;5114772;28;20473;-61
2022/02/06 15:27:28;;;;;;;5.95;0.98;;;5.10;99.90;;;;;;5114674;28;20043;-63
2022/02/06 15:29:57;;;;;;;8.48;1.27;;;5.10;99.90;;;;;;5078725;28;20052;-52
2022/02/06 15:32:26;;;;;;;1.85;0.60;;;5.10;99.90;;;;;;5114353;28;20040;-52
2022/02/06 15:34:52;;;;;;;5.53;0.75;;;4.90;99.90;;;;;;5096757;28;20039;-54
2022/02/06 15:37:18;;;;;;;5.78;1.10;;;4.80;99.90;;;;;;5095460;28;20047;-52
2022/02/06 15:39:45;;;;;;;5.22;0.98;;;4.90;99.90;;;;;;5114383;28;20042;-52